Time;durP1;ratioP1;P1;durP2;ratioP2;P2;SDS_P1;SDS_P2;PMS_P1;PMS_P2;Temp;Humidity;BMP_temperature;BMP_pressure;BME280_temperature;BME280_humidity;BME280_pressure;Samples;Min_cycle;Max_cycle;Signal;HPM_P1;HPM_P2
2023/09/05 00:00:10;;;;;;;1.98;1.77;;;21.30;99.90;;;;;;5032453;28;20470;-34
2023/09/05 00:02:48;;;;;;;4.25;1.98;;;21.20;99.90;;;;;;5033230;28;20021;-36
2023/09/05 00:05:14;;;;;;;3.03;2.20;;;21.20;99.90;;;;;;5033299;28;20092;-40
2023/09/05 00:07:40;;;;;;;3.17;2.30;;;21.20;99.90;;;;;;5033291;28;20071;-38
2023/09/05 00:10:10;;;;;;;2.88;2.10;;;21.20;99.90;;;;;;5032903;28;20017;-38
2023/09/05 00:12:40;;;;;;;4.53;2.40;;;21.30;99.90;;;;;;5033233;28;20034;-37
2023/09/05 00:15:10;;;;;;;2.17;1.98;;;21.20;99.90;;;;;;5033102;28;20108;-37
2023/09/05 00:17:37;;;;;;;3.58;2.40;;;21.20;99.90;;;;;;5033108;28;20029;-41
2023/09/05 00:20:07;;;;;;;3.15;2.17;;;21.20;99.90;;;;;;5032809;28;20021;-34
2023/09/05 00:22:33;;;;;;;2.50;2.05;;;21.20;99.90;;;;;;5033501;28;20024;-35
2023/09/05 00:24:59;;;;;;;2.38;2.17;;;21.20;99.90;;;;;;5031771;28;20071;-34
2023/09/05 00:27:25;;;;;;;3.20;2.13;;;21.20;99.90;;;;;;5033051;28;20051;-39
2023/09/05 00:29:51;;;;;;;2.30;2.10;;;21.20;99.90;;;;;;5032626;28;20029;-36
2023/09/05 00:32:18;;;;;;;3.28;2.33;;;21.20;99.90;;;;;;5032975;28;20083;-38
2023/09/05 00:34:44;;;;;;;3.97;2.38;;;21.20;99.90;;;;;;5031315;28;20079;-36
2023/09/05 00:37:10;;;;;;;2.72;2.42;;;21.20;99.90;;;;;;5032702;28;20036;-36
2023/09/05 00:39:41;;;;;;;4.00;2.25;;;21.20;99.90;;;;;;5032542;28;20044;-37
2023/09/05 00:42:10;;;;;;;3.63;2.50;;;21.20;99.90;;;;;;5032528;28;20022;-39
2023/09/05 00:44:37;;;;;;;3.45;2.30;;;21.20;99.90;;;;;;5032464;28;20026;-42
2023/09/05 00:47:04;;;;;;;4.75;2.50;;;21.20;99.90;;;;;;5032546;28;20037;-37
2023/09/05 00:49:38;;;;;;;5.40;2.33;;;21.20;99.90;;;;;;5032210;28;20022;-37
2023/09/05 00:52:05;;;;;;;5.32;2.08;;;21.20;99.90;;;;;;5032370;28;20053;-34
2023/09/05 00:54:32;;;;;;;2.85;2.20;;;21.20;99.90;;;;;;5032200;28;20040;-36
2023/09/05 00:56:58;;;;;;;2.58;2.22;;;21.20;99.90;;;;;;5032713;28;20025;-38
2023/09/05 00:59:24;;;;;;;3.13;2.30;;;21.20;99.90;;;;;;5032042;28;20030;-37
2023/09/05 01:01:50;;;;;;;4.00;2.40;;;21.20;99.90;;;;;;5032177;28;20030;-34
2023/09/05 01:04:16;;;;;;;3.50;2.42;;;21.20;99.90;;;;;;5031984;28;20528;-38
2023/09/05 01:06:53;;;;;;;3.00;2.33;;;21.20;99.90;;;;;;5032273;28;20017;-36
2023/09/05 01:09:41;;;;;;;3.53;2.25;;;21.10;99.90;;;;;;5031671;28;20029;-37
2023/09/05 01:12:07;;;;;;;2.70;2.47;;;21.20;99.90;;;;;;5032076;28;20076;-34
2023/09/05 01:14:33;;;;;;;3.03;2.20;;;21.10;99.90;;;;;;5032049;28;20554;-34
2023/09/05 01:17:05;;;;;;;3.92;2.30;;;21.10;99.90;;;;;;5031844;28;20025;-34
2023/09/05 01:19:34;;;;;;;4.28;2.13;;;21.10;99.90;;;;;;5031854;28;20021;-36
2023/09/05 01:22:15;;;;;;;2.80;2.30;;;21.10;99.90;;;;;;5031888;28;20022;-43
2023/09/05 01:24:41;;;;;;;4.30;2.20;;;21.10;99.90;;;;;;5031581;28;20032;-38
2023/09/05 01:27:17;;;;;;;2.92;2.13;;;21.10;99.90;;;;;;5031789;28;20108;-37
2023/09/05 01:29:44;;;;;;;2.42;2.22;;;21.10;99.90;;;;;;5031667;28;20506;-35
2023/09/05 01:32:10;;;;;;;4.88;2.20;;;21.10;99.90;;;;;;5031750;28;20064;-38
2023/09/05 01:34:36;;;;;;;3.13;2.15;;;21.10;99.90;;;;;;5031609;28;20056;-36
2023/09/05 01:37:02;;;;;;;3.58;2.28;;;21.10;99.90;;;;;;5031654;28;20451;-34
2023/09/05 01:39:27;;;;;;;3.88;2.10;;;21.10;99.90;;;;;;5031387;28;20060;-38
2023/09/05 01:41:54;;;;;;;2.30;2.00;;;21.10;99.90;;;;;;5031505;28;20100;-42
2023/09/05 01:44:19;;;;;;;2.35;2.13;;;21.10;99.90;;;;;;5032822;28;20111;-42
2023/09/05 01:46:45;;;;;;;3.00;1.88;;;21.10;99.90;;;;;;5031551;28;20430;-35
2023/09/05 01:49:11;;;;;;;3.00;2.17;;;21.10;99.90;;;;;;5031244;28;20075;-37
2023/09/05 01:51:37;;;;;;;3.05;1.95;;;21.10;99.90;;;;;;5031640;28;20119;-34
2023/09/05 01:54:03;;;;;;;2.67;2.10;;;21.10;99.90;;;;;;5031372;28;20025;-44
2023/09/05 01:56:29;;;;;;;3.25;2.20;;;21.10;99.90;;;;;;5031351;28;20386;-34
2023/09/05 01:58:54;;;;;;;3.80;2.30;;;21.10;99.90;;;;;;5031236;28;20035;-39
2023/09/05 02:01:20;;;;;;;4.65;2.50;;;21.10;99.90;;;;;;5031333;28;20037;-37
2023/09/05 02:03:47;;;;;;;3.58;2.20;;;21.10;99.90;;;;;;5031510;28;20055;-36
2023/09/05 02:06:15;;;;;;;3.13;1.83;;;21.10;99.90;;;;;;5031376;28;20029;-37
2023/09/05 02:08:41;;;;;;;3.40;2.13;;;21.10;99.90;;;;;;5031193;28;20101;-38
2023/09/05 02:11:09;;;;;;;2.28;2.08;;;21.10;99.90;;;;;;5031037;28;20022;-36
2023/09/05 02:13:35;;;;;;;3.00;2.13;;;21.10;99.90;;;;;;5031406;28;20026;-34
2023/09/05 02:16:01;;;;;;;2.50;2.30;;;21.10;99.90;;;;;;5031309;28;20083;-36
2023/09/05 02:18:27;;;;;;;2.60;1.92;;;21.10;99.90;;;;;;5031196;28;20029;-37
2023/09/05 02:20:58;;;;;;;3.85;2.17;;;21.00;99.90;;;;;;5030980;28;20080;-43
2023/09/05 02:23:23;;;;;;;2.85;1.95;;;21.10;99.90;;;;;;5034385;28;20430;-39
2023/09/05 02:26:00;;;;;;;3.92;2.60;;;21.00;99.90;;;;;;5034975;28;20021;-36
2023/09/05 02:28:26;;;;;;;2.60;2.05;;;21.10;99.90;;;;;;5035036;28;20117;-34
2023/09/05 02:30:53;;;;;;;3.03;2.25;;;21.10;99.90;;;;;;5034956;28;20121;-38
2023/09/05 02:33:19;;;;;;;2.63;1.90;;;21.00;99.90;;;;;;5035056;28;20029;-34
2023/09/05 02:35:45;;;;;;;2.38;2.17;;;21.00;99.90;;;;;;5035028;28;20483;-36
2023/09/05 02:38:13;;;;;;;2.75;2.00;;;21.00;99.90;;;;;;5034718;28;20033;-36
2023/09/05 02:40:46;;;;;;;3.17;2.13;;;21.00;99.90;;;;;;5034819;28;20021;-35
2023/09/05 02:43:13;;;;;;;3.45;2.22;;;21.00;99.90;;;;;;5034790;28;20443;-34
2023/09/05 02:45:38;;;;;;;2.83;1.98;;;21.00;99.90;;;;;;5034752;28;20512;-37
2023/09/05 02:48:05;;;;;;;2.35;1.90;;;21.00;99.90;;;;;;5035025;28;20030;-36
2023/09/05 02:50:30;;;;;;;2.25;2.00;;;21.00;99.90;;;;;;5034443;28;20013;-36
2023/09/05 02:52:56;;;;;;;2.92;1.98;;;21.00;99.90;;;;;;5034581;28;20062;-38
2023/09/05 02:55:22;;;;;;;2.75;1.90;;;21.00;99.90;;;;;;5034774;28;20033;-36
2023/09/05 02:57:47;;;;;;;3.00;2.25;;;21.00;99.90;;;;;;5034695;28;20026;-34
2023/09/05 03:00:13;;;;;;;2.05;1.75;;;21.00;99.90;;;;;;5034379;28;20066;-38
2023/09/05 03:02:43;;;;;;;2.80;1.90;;;21.00;99.90;;;;;;5034364;28;20029;-36
2023/09/05 03:05:10;;;;;;;3.63;1.83;;;21.00;99.90;;;;;;5034833;28;20018;-36
2023/09/05 03:07:35;;;;;;;3.03;2.10;;;21.00;99.90;;;;;;5034307;28;20478;-38
2023/09/05 03:10:02;;;;;;;4.75;2.13;;;21.00;99.90;;;;;;5034112;28;20033;-34
2023/09/05 03:12:28;;;;;;;3.38;2.40;;;21.00;99.90;;;;;;5034294;28;20029;-39
2023/09/05 03:14:54;;;;;;;2.47;2.10;;;21.00;99.90;;;;;;5034082;28;20036;-37
2023/09/05 03:17:19;;;;;;;2.95;2.00;;;21.00;99.90;;;;;;5034255;28;20414;-38
2023/09/05 03:19:45;;;;;;;6.85;2.10;;;20.90;99.90;;;;;;5033940;28;20112;-39
2023/09/05 03:22:10;;;;;;;2.75;2.08;;;21.00;99.90;;;;;;5034206;28;20364;-39
2023/09/05 03:24:36;;;;;;;2.75;2.17;;;21.00;99.90;;;;;;5034118;28;20022;-37
2023/09/05 03:27:02;;;;;;;5.00;2.00;;;21.00;99.90;;;;;;5033945;28;20021;-38
2023/09/05 03:29:28;;;;;;;2.33;1.92;;;21.00;99.90;;;;;;5033741;28;20493;-38
2023/09/05 03:31:54;;;;;;;2.60;1.70;;;21.00;99.90;;;;;;5033956;28;20037;-37
2023/09/05 03:34:20;;;;;;;3.17;2.22;;;21.00;99.90;;;;;;5033639;28;20128;-39
2023/09/05 03:36:46;;;;;;;3.17;2.20;;;20.90;99.90;;;;;;5033777;28;20021;-34
2023/09/05 03:39:11;;;;;;;2.83;1.98;;;20.90;99.90;;;;;;5033584;28;20367;-36
2023/09/05 03:41:37;;;;;;;3.25;2.20;;;20.90;99.90;;;;;;5033626;28;20372;-35
2023/09/05 03:44:03;;;;;;;2.30;1.83;;;20.90;99.90;;;;;;5032387;28;20044;-37
2023/09/05 03:46:28;;;;;;;2.55;2.00;;;20.90;99.90;;;;;;5034225;28;20029;-42
2023/09/05 03:48:55;;;;;;;3.40;1.98;;;21.00;99.90;;;;;;5033334;28;20022;-36
2023/09/05 03:51:21;;;;;;;3.28;1.90;;;20.90;99.90;;;;;;5033487;28;20054;-38
2023/09/05 03:53:47;;;;;;;2.53;1.90;;;20.90;99.90;;;;;;5033473;28;20525;-39
2023/09/05 03:56:12;;;;;;;2.63;1.83;;;20.90;99.90;;;;;;5033473;28;20034;-34
2023/09/05 03:58:38;;;;;;;3.22;2.00;;;20.90;99.90;;;;;;5033506;28;20028;-36
2023/09/05 04:01:04;;;;;;;3.65;2.28;;;20.90;99.90;;;;;;5033184;28;20036;-38
2023/09/05 04:03:32;;;;;;;2.58;1.73;;;20.90;99.90;;;;;;5033217;28;20387;-34
2023/09/05 04:06:01;;;;;;;3.15;2.08;;;20.90;99.90;;;;;;5033244;28;20024;-36
2023/09/05 04:08:27;;;;;;;2.33;2.00;;;20.90;99.90;;;;;;5033323;28;20053;-34
2023/09/05 04:10:57;;;;;;;1.90;1.70;;;20.90;99.90;;;;;;5033057;28;20144;-36
2023/09/05 04:13:23;;;;;;;3.53;2.05;;;20.90;99.90;;;;;;5033561;28;20022;-36
2023/09/05 04:15:48;;;;;;;3.47;1.92;;;20.90;99.90;;;;;;5033023;28;20506;-36
2023/09/05 04:18:14;;;;;;;3.97;1.77;;;20.80;99.90;;;;;;5033092;28;20033;-37
2023/09/05 04:20:40;;;;;;;3.22;2.08;;;20.90;99.90;;;;;;5032743;28;20030;-34
2023/09/05 04:23:05;;;;;;;4.25;1.90;;;20.90;99.90;;;;;;5032890;28;20030;-36
2023/09/05 04:25:32;;;;;;;2.92;1.90;;;20.80;99.90;;;;;;5032960;28;20025;-36
2023/09/05 04:27:58;;;;;;;3.50;1.95;;;20.80;99.90;;;;;;5032911;28;20028;-37
2023/09/05 04:30:23;;;;;;;2.40;1.90;;;20.90;99.90;;;;;;5032896;28;20029;-36
2023/09/05 04:32:49;;;;;;;3.80;1.88;;;20.80;99.90;;;;;;5032650;28;20053;-45
2023/09/05 04:35:15;;;;;;;2.83;1.95;;;20.80;99.90;;;;;;5032656;28;20033;-39
2023/09/05 04:37:41;;;;;;;2.10;1.75;;;20.80;99.90;;;;;;5032697;28;20486;-38
2023/09/05 04:40:07;;;;;;;2.65;1.85;;;20.80;99.90;;;;;;5032413;28;20025;-36
2023/09/05 04:42:33;;;;;;;3.00;2.08;;;20.80;99.90;;;;;;5032579;28;20035;-40
2023/09/05 04:44:59;;;;;;;4.30;1.70;;;20.80;99.90;;;;;;5031701;28;20112;-35
2023/09/05 04:47:26;;;;;;;2.58;1.90;;;20.80;99.90;;;;;;5032343;28;20114;-38
2023/09/05 04:49:59;;;;;;;2.40;1.92;;;20.80;99.90;;;;;;5032267;28;20033;-37
2023/09/05 04:52:27;;;;;;;4.63;2.10;;;20.80;99.90;;;;;;5031300;28;20029;-41
2023/09/05 04:54:55;;;;;;;2.00;1.60;;;20.80;99.90;;;;;;5032314;28;20052;-37
2023/09/05 04:57:21;;;;;;;2.60;1.98;;;20.80;99.90;;;;;;5032395;28;20030;-38
2023/09/05 04:59:47;;;;;;;2.80;1.98;;;20.80;99.90;;;;;;5031991;28;20108;-37
2023/09/05 05:02:16;;;;;;;3.63;1.95;;;20.80;99.90;;;;;;5032248;28;20021;-34
2023/09/05 05:04:45;;;;;;;4.75;2.20;;;20.80;99.90;;;;;;5032110;28;20049;-37
2023/09/05 05:07:11;;;;;;;3.90;2.10;;;20.80;99.90;;;;;;5032309;28;20036;-38
2023/09/05 05:09:39;;;;;;;2.60;2.00;;;20.80;99.90;;;;;;5031909;28;20029;-37
2023/09/05 05:12:06;;;;;;;3.40;1.88;;;20.80;99.90;;;;;;5032161;28;20036;-39
2023/09/05 05:14:31;;;;;;;3.35;1.70;;;20.80;99.90;;;;;;5031791;28;20033;-36
2023/09/05 05:16:57;;;;;;;3.67;1.80;;;20.80;99.90;;;;;;5030924;28;20498;-34
2023/09/05 05:19:23;;;;;;;2.70;1.70;;;20.80;99.90;;;;;;5031634;28;20026;-40
2023/09/05 05:21:50;;;;;;;2.10;1.70;;;20.80;99.90;;;;;;5031860;28;20029;-39
2023/09/05 05:24:15;;;;;;;2.88;2.10;;;20.80;99.90;;;;;;5031752;28;20026;-41
2023/09/05 05:26:43;;;;;;;2.40;1.83;;;20.80;99.90;;;;;;5031916;28;20427;-38
2023/09/05 05:29:09;;;;;;;2.53;1.83;;;20.70;99.90;;;;;;5031559;28;20108;-36
2023/09/05 05:31:34;;;;;;;3.47;2.10;;;20.70;99.90;;;;;;5031801;28;20423;-37
2023/09/05 05:34:00;;;;;;;3.58;2.22;;;20.80;99.90;;;;;;5031597;28;20025;-44
2023/09/05 05:36:26;;;;;;;3.10;2.10;;;20.80;99.90;;;;;;5031718;28;20026;-40
2023/09/05 05:38:52;;;;;;;2.28;1.73;;;20.70;99.90;;;;;;5030458;28;20486;-38
2023/09/05 05:41:18;;;;;;;2.25;1.60;;;20.70;99.90;;;;;;5031421;28;20029;-38
2023/09/05 05:43:44;;;;;;;3.17;1.77;;;20.70;99.90;;;;;;5031440;28;20101;-37
2023/09/05 05:46:11;;;;;;;9.05;2.10;;;20.70;99.90;;;;;;5031536;28;20562;-40
2023/09/05 05:48:38;;;;;;;2.03;1.77;;;20.70;99.90;;;;;;5031429;28;20053;-35
2023/09/05 05:51:03;;;;;;;3.10;2.20;;;20.70;99.90;;;;;;5031263;28;20486;-38
2023/09/05 05:53:29;;;;;;;2.55;1.73;;;20.70;99.90;;;;;;5031400;28;20074;-37
2023/09/05 05:55:55;;;;;;;4.82;1.80;;;20.70;99.90;;;;;;5032036;28;20495;-36
2023/09/05 05:58:20;;;;;;;3.33;1.95;;;20.70;99.90;;;;;;5031978;28;20039;-36
2023/09/05 06:00:50;;;;;;;2.50;1.85;;;20.70;99.90;;;;;;5031360;28;20025;-39
2023/09/05 06:03:20;;;;;;;3.58;1.67;;;20.70;99.90;;;;;;5031255;28;20029;-38
2023/09/05 06:05:46;;;;;;;2.50;1.60;;;20.70;99.90;;;;;;5031183;28;20471;-39
2023/09/05 06:08:11;;;;;;;3.08;1.92;;;20.70;99.90;;;;;;5030012;28;20029;-36
2023/09/05 06:10:37;;;;;;;2.53;2.03;;;20.70;99.90;;;;;;5030961;28;20104;-34
2023/09/05 06:13:04;;;;;;;2.03;1.67;;;20.70;99.90;;;;;;5031205;28;20471;-39
2023/09/05 06:15:31;;;;;;;2.65;1.90;;;20.70;99.90;;;;;;5031139;28;20456;-37
2023/09/05 06:17:56;;;;;;;1.92;1.45;;;20.70;99.90;;;;;;5031145;28;20479;-34
2023/09/05 06:20:22;;;;;;;3.38;1.80;;;20.70;99.90;;;;;;5030959;28;20037;-41
2023/09/05 06:22:49;;;;;;;2.05;1.80;;;20.70;99.90;;;;;;5029790;28;20379;-36
2023/09/05 06:25:15;;;;;;;2.35;1.70;;;20.70;99.90;;;;;;5030981;28;20476;-37
2023/09/05 06:27:43;;;;;;;2.92;1.70;;;20.70;99.90;;;;;;5031175;28;20034;-34
2023/09/05 06:30:12;;;;;;;3.50;1.90;;;20.70;99.90;;;;;;5030918;28;20513;-38
2023/09/05 06:32:39;;;;;;;4.53;1.95;;;20.80;99.90;;;;;;5031202;28;20041;-39
2023/09/05 06:35:09;;;;;;;1.75;1.48;;;20.70;99.90;;;;;;5030080;28;20494;-39
2023/09/05 06:37:36;;;;;;;3.22;2.00;;;20.70;99.90;;;;;;5031288;28;20498;-37
2023/09/05 06:40:06;;;;;;;3.08;1.98;;;20.80;99.90;;;;;;5030768;28;20079;-39
2023/09/05 06:42:32;;;;;;;4.53;1.90;;;20.80;99.90;;;;;;5030961;28;20049;-39
2023/09/05 06:44:58;;;;;;;2.40;1.70;;;20.80;99.90;;;;;;5030875;28;20060;-37
2023/09/05 06:47:24;;;;;;;2.67;1.52;;;20.80;99.90;;;;;;5030982;28;20022;-36
2023/09/05 06:49:49;;;;;;;2.30;1.60;;;20.80;99.90;;;;;;5030731;28;20022;-41
2023/09/05 06:52:15;;;;;;;2.85;2.00;;;20.80;99.90;;;;;;5030865;28;20037;-39
2023/09/05 06:54:40;;;;;;;2.05;1.45;;;20.80;99.90;;;;;;5030782;28;20104;-38
2023/09/05 06:57:08;;;;;;;1.92;1.65;;;20.80;99.90;;;;;;5030856;28;20057;-34
2023/09/05 06:59:35;;;;;;;3.75;1.25;;;20.80;99.90;;;;;;5030900;28;20029;-37
2023/09/05 07:02:02;;;;;;;1.50;1.35;;;20.80;99.90;;;;;;5031509;28;20026;-36
2023/09/05 07:04:31;;;;;;;1.80;1.60;;;20.80;99.90;;;;;;5031011;28;20021;-34
2023/09/05 07:06:57;;;;;;;2.17;1.75;;;20.80;99.90;;;;;;5030723;28;20562;-38
2023/09/05 07:09:24;;;;;;;1.70;1.42;;;20.80;99.90;;;;;;5033439;28;20052;-39
2023/09/05 07:11:49;;;;;;;2.17;1.67;;;20.80;99.90;;;;;;5034318;28;20064;-39
2023/09/05 07:14:15;;;;;;;1.48;1.30;;;20.80;99.90;;;;;;5034340;28;20061;-34
2023/09/05 07:16:40;;;;;;;2.60;1.88;;;20.90;99.90;;;;;;5034288;28;20021;-34
2023/09/05 07:19:06;;;;;;;2.30;1.50;;;20.90;99.90;;;;;;5034051;28;20109;-34
2023/09/05 07:21:32;;;;;;;2.03;1.55;;;20.90;99.90;;;;;;5034631;28;20029;-39
2023/09/05 07:23:57;;;;;;;2.10;1.60;;;20.90;99.90;;;;;;5034157;28;20463;-34
2023/09/05 07:26:23;;;;;;;2.03;1.67;;;20.90;99.90;;;;;;5034135;28;20095;-39
2023/09/05 07:28:48;;;;;;;2.53;1.50;;;20.90;99.90;;;;;;5033818;28;20061;-36
2023/09/05 07:31:15;;;;;;;2.05;1.70;;;20.90;99.90;;;;;;5033856;28;20017;-37
2023/09/05 07:33:41;;;;;;;1.77;1.40;;;20.90;99.90;;;;;;5034086;28;20052;-36
2023/09/05 07:36:07;;;;;;;2.78;1.83;;;20.90;99.90;;;;;;5033671;28;20053;-37
2023/09/05 07:38:32;;;;;;;1.85;1.58;;;21.00;99.90;;;;;;5032759;28;20017;-38
2023/09/05 07:41:02;;;;;;;11.20;2.05;;;21.00;99.90;;;;;;5033584;28;20036;-37
2023/09/05 07:43:28;;;;;;;5.35;2.20;;;20.80;99.90;;;;;;5033625;28;20032;-39
2023/09/05 07:45:54;;;;;;;8.25;2.60;;;20.90;99.90;;;;;;5033649;28;20037;-38
2023/09/05 07:48:19;;;;;;;12.32;2.20;;;20.90;99.90;;;;;;5033646;28;20018;-39
2023/09/05 07:50:46;;;;;;;11.10;2.33;;;20.90;99.90;;;;;;5033338;28;20042;-39
2023/09/05 07:53:13;;;;;;;6.43;1.77;;;20.90;99.90;;;;;;5033528;28;20033;-37
2023/09/05 07:55:38;;;;;;;12.00;2.20;;;21.00;99.90;;;;;;5033469;28;20494;-34
2023/09/05 07:58:04;;;;;;;13.38;2.63;;;20.90;99.90;;;;;;5033481;28;20061;-39
2023/09/05 08:00:30;;;;;;;5.25;2.05;;;21.00;99.90;;;;;;5033267;28;20511;-37
2023/09/05 08:02:56;;;;;;;5.75;2.58;;;21.00;99.90;;;;;;5033442;28;20033;-37
2023/09/05 08:05:21;;;;;;;6.65;2.08;;;21.10;99.90;;;;;;5033422;28;20030;-37
2023/09/05 08:07:48;;;;;;;8.45;2.03;;;21.10;99.90;;;;;;5033318;28;20022;-38
2023/09/05 08:10:13;;;;;;;7.80;2.00;;;21.10;99.90;;;;;;5033055;28;20079;-35
2023/09/05 08:12:39;;;;;;;5.72;2.00;;;21.10;99.90;;;;;;5033510;28;20060;-39
2023/09/05 08:15:05;;;;;;;2.78;1.70;;;21.20;99.90;;;;;;5033235;28;20033;-37
2023/09/05 08:17:32;;;;;;;4.65;1.80;;;21.20;99.90;;;;;;5033217;28;20033;-38
2023/09/05 08:19:58;;;;;;;5.82;2.03;;;21.20;99.90;;;;;;5031991;28;20483;-39
2023/09/05 08:22:24;;;;;;;4.63;1.60;;;21.20;99.90;;;;;;5032933;28;20117;-35
2023/09/05 08:24:50;;;;;;;3.10;1.75;;;21.20;99.90;;;;;;5032952;28;20441;-40
2023/09/05 08:27:16;;;;;;;3.88;1.73;;;21.20;99.90;;;;;;5033062;28;20052;-35
2023/09/05 08:29:42;;;;;;;4.18;1.85;;;21.20;99.90;;;;;;5032675;28;20474;-38
2023/09/05 08:32:08;;;;;;;3.78;1.88;;;21.30;99.90;;;;;;5032851;28;20025;-35
2023/09/05 08:34:33;;;;;;;5.60;2.35;;;21.30;99.90;;;;;;5033081;28;20021;-42
2023/09/05 08:36:59;;;;;;;4.03;1.98;;;21.30;99.90;;;;;;5032688;28;20021;-37
2023/09/05 08:39:26;;;;;;;3.20;1.75;;;21.30;99.90;;;;;;5032484;28;20058;-38
2023/09/05 08:41:52;;;;;;;3.90;2.00;;;21.30;99.90;;;;;;5032731;28;20033;-40
2023/09/05 08:44:18;;;;;;;4.55;1.98;;;21.30;99.90;;;;;;5032393;28;20026;-37
2023/09/05 08:46:45;;;;;;;3.00;1.75;;;21.40;99.90;;;;;;5031432;28;20059;-38
2023/09/05 08:49:11;;;;;;;4.03;1.55;;;21.40;99.90;;;;;;5032338;28;20390;-37
2023/09/05 08:51:39;;;;;;;3.88;1.60;;;21.40;99.90;;;;;;5032466;28;20052;-39
2023/09/05 08:54:06;;;;;;;4.20;1.83;;;21.40;99.90;;;;;;5032344;28;20040;-37
2023/09/05 08:56:33;;;;;;;4.45;1.55;;;21.30;99.90;;;;;;5032433;28;20048;-45
2023/09/05 08:59:01;;;;;;;4.35;2.05;;;21.40;99.90;;;;;;5032083;28;20095;-41
2023/09/05 09:01:29;;;;;;;5.35;1.90;;;21.40;99.90;;;;;;5032149;28;20553;-44
2023/09/05 09:03:55;;;;;;;3.10;1.67;;;21.40;99.90;;;;;;5032190;28;20077;-43
2023/09/05 09:06:25;;;;;;;5.22;1.80;;;21.40;99.90;;;;;;5032257;28;20056;-39
2023/09/05 09:08:52;;;;;;;3.58;1.70;;;21.50;99.90;;;;;;5032062;28;20394;-38
2023/09/05 09:11:22;;;;;;;2.97;1.77;;;21.50;99.90;;;;;;5032008;28;20493;-38
2023/09/05 09:13:52;;;;;;;2.30;1.48;;;21.50;99.90;;;;;;5031923;28;20483;-39
2023/09/05 09:16:18;;;;;;;2.72;1.63;;;21.50;99.90;;;;;;5032048;28;20032;-36
2023/09/05 09:19:03;;;;;;;3.75;1.75;;;21.50;99.90;;;;;;5031932;28;20025;-41
2023/09/05 09:21:31;;;;;;;2.53;1.60;;;21.50;99.90;;;;;;5031908;28;20029;-39
2023/09/05 09:24:05;;;;;;;2.53;1.40;;;21.50;99.90;;;;;;5031834;28;20067;-37
2023/09/05 09:26:32;;;;;;;2.88;1.38;;;21.50;99.90;;;;;;5031829;28;20083;-37
2023/09/05 09:28:58;;;;;;;2.70;1.50;;;21.50;99.90;;;;;;5031722;28;20470;-42
2023/09/05 09:31:27;;;;;;;3.78;1.40;;;21.60;99.90;;;;;;5031504;28;20056;-42
2023/09/05 09:33:57;;;;;;;3.35;1.77;;;21.60;99.90;;;;;;5031663;28;20017;-39
2023/09/05 09:36:23;;;;;;;2.38;1.77;;;21.60;99.90;;;;;;5031836;28;20052;-41
2023/09/05 09:38:48;;;;;;;5.78;2.20;;;21.60;99.90;;;;;;5031460;28;20029;-35
2023/09/05 09:41:16;;;;;;;4.70;1.80;;;21.60;99.90;;;;;;5031422;28;20036;-35
2023/09/05 09:43:41;;;;;;;5.72;1.90;;;21.60;99.90;;;;;;5030462;28;20457;-39
2023/09/05 09:46:11;;;;;;;2.78;1.60;;;21.60;99.90;;;;;;5031883;28;20083;-41
2023/09/05 09:48:38;;;;;;;3.30;1.80;;;21.60;99.90;;;;;;5031537;28;20382;-38
2023/09/05 09:51:06;;;;;;;4.75;1.80;;;21.60;99.90;;;;;;5031334;28;20384;-39
2023/09/05 09:53:38;;;;;;;4.22;1.85;;;21.60;99.90;;;;;;5031401;28;20021;-37
2023/09/05 09:56:10;;;;;;;2.45;1.60;;;21.60;99.90;;;;;;5031791;28;20017;-46
2023/09/05 09:58:41;;;;;;;6.38;1.70;;;21.70;99.90;;;;;;5031510;28;20033;-41
2023/09/05 10:01:11;;;;;;;3.28;1.42;;;21.70;99.90;;;;;;5031330;28;20376;-41
2023/09/05 10:03:42;;;;;;;5.60;1.80;;;21.70;99.90;;;;;;5031455;28;20446;-38
2023/09/05 10:06:09;;;;;;;4.45;1.50;;;21.70;99.90;;;;;;5034723;28;20021;-37
2023/09/05 10:08:35;;;;;;;2.33;1.48;;;21.70;99.90;;;;;;5033623;28;20040;-38
2023/09/05 10:11:02;;;;;;;4.25;1.50;;;21.70;99.90;;;;;;5031303;28;20491;-39
2023/09/05 10:13:32;;;;;;;5.47;1.88;;;21.70;99.90;;;;;;5031212;28;20379;-42
2023/09/05 10:16:01;;;;;;;4.85;2.05;;;21.70;99.90;;;;;;5031255;28;20104;-39
2023/09/05 10:18:31;;;;;;;3.03;1.70;;;21.70;99.90;;;;;;5031194;28;20056;-38
2023/09/05 10:21:02;;;;;;;3.78;1.98;;;21.80;99.90;;;;;;5031072;28;20048;-38
2023/09/05 10:23:32;;;;;;;1.45;1.20;;;21.80;99.90;;;;;;5031826;28;20108;-37
2023/09/05 10:26:00;;;;;;;4.68;1.50;;;21.80;99.90;;;;;;5031664;28;20045;-37
2023/09/05 10:28:29;;;;;;;3.30;1.70;;;21.80;99.90;;;;;;5031124;28;20025;-37
2023/09/05 10:31:15;;;;;;;3.25;1.73;;;21.80;99.90;;;;;;5030906;28;20032;-37
2023/09/05 10:33:45;;;;;;;3.92;1.80;;;21.80;99.90;;;;;;5031370;28;20464;-37
2023/09/05 10:36:40;;;;;;;4.10;1.60;;;21.80;99.90;;;;;;5031149;28;20022;-43
2023/09/05 10:39:24;;;;;;;3.40;1.30;;;21.80;99.90;;;;;;5030805;28;20017;-38
2023/09/05 10:41:51;;;;;;;4.23;1.30;;;21.80;99.90;;;;;;5031287;28;20018;-39
2023/09/05 10:44:17;;;;;;;3.47;1.20;;;21.90;99.90;;;;;;5031270;28;20021;-39
2023/09/05 10:46:44;;;;;;;4.03;1.60;;;22.10;99.90;;;;;;5034653;28;20576;-42
2023/09/05 10:49:12;;;;;;;2.35;1.30;;;22.20;99.90;;;;;;5034568;28;20033;-38
2023/09/05 10:52:20;;;;;;;2.03;1.40;;;22.20;99.90;;;;;;5035309;28;20022;-37
2023/09/05 10:54:46;;;;;;;4.38;1.80;;;22.20;99.90;;;;;;5034613;28;20037;-39
2023/09/05 10:57:37;;;;;;;2.60;1.40;;;22.20;99.90;;;;;;5034612;28;20029;-34
2023/09/05 11:00:15;;;;;;;2.33;1.27;;;22.20;99.90;;;;;;5034528;28;20092;-39
2023/09/05 11:02:41;;;;;;;3.22;1.25;;;22.20;99.90;;;;;;5034576;28;20061;-38
2023/09/05 11:05:18;;;;;;;2.45;1.27;;;22.20;99.90;;;;;;5034985;28;20080;-36
2023/09/05 11:07:49;;;;;;;4.35;1.67;;;22.20;99.90;;;;;;5034532;28;20024;-39
2023/09/05 11:10:45;;;;;;;2.65;1.35;;;22.20;99.90;;;;;;5034206;28;20028;-37
2023/09/05 11:13:14;;;;;;;3.03;1.25;;;22.20;99.90;;;;;;5025583;28;20171;-36
2023/09/05 11:15:43;;;;;;;2.97;1.35;;;22.20;99.90;;;;;;5034215;28;20497;-37
2023/09/05 11:18:14;;;;;;;3.40;1.35;;;22.20;99.90;;;;;;5034425;28;20059;-34
2023/09/05 11:20:48;;;;;;;2.80;1.45;;;22.20;99.90;;;;;;5034035;28;20021;-39
2023/09/05 11:23:18;;;;;;;3.80;1.30;;;22.20;99.90;;;;;;5034192;28;20032;-38
2023/09/05 11:25:46;;;;;;;2.15;1.27;;;22.20;99.90;;;;;;5034097;28;20136;-34
2023/09/05 11:28:12;;;;;;;2.45;1.23;;;22.20;99.90;;;;;;5034397;28;20025;-37
2023/09/05 11:30:40;;;;;;;2.33;1.25;;;22.20;99.90;;;;;;5034838;28;20021;-38
2023/09/05 11:33:09;;;;;;;2.38;1.30;;;22.20;99.90;;;;;;5034011;28;20028;-35
2023/09/05 11:35:40;;;;;;;1.30;1.13;;;22.20;99.90;;;;;;5033916;28;20494;-42
2023/09/05 11:38:06;;;;;;;1.45;1.13;;;22.20;99.90;;;;;;5034036;28;20037;-37
2023/09/05 11:40:31;;;;;;;1.90;1.27;;;22.20;99.90;;;;;;5033595;28;20027;-41
2023/09/05 11:43:11;;;;;;;3.78;1.10;;;22.20;99.90;;;;;;5033829;28;20075;-37
2023/09/05 11:45:39;;;;;;;1.30;1.20;;;22.20;99.90;;;;;;5033628;28;20833;-37
2023/09/05 11:48:10;;;;;;;2.47;1.35;;;22.20;99.90;;;;;;5033665;28;20022;-37
2023/09/05 11:50:37;;;;;;;1.92;1.00;;;22.30;99.90;;;;;;5033555;28;20026;-37
2023/09/05 11:53:05;;;;;;;1.20;1.00;;;22.20;99.90;;;;;;5033650;28;20030;-43
2023/09/05 11:55:31;;;;;;;2.10;1.27;;;22.20;99.90;;;;;;5033293;28;20030;-39
2023/09/05 11:57:59;;;;;;;1.83;1.17;;;22.20;99.90;;;;;;5034007;28;20021;-35
2023/09/05 12:00:25;;;;;;;1.48;1.00;;;22.20;99.90;;;;;;5033418;28;20028;-36
2023/09/05 12:02:53;;;;;;;1.17;1.00;;;22.20;99.90;;;;;;5033205;28;20483;-39
2023/09/05 12:05:21;;;;;;;2.13;1.30;;;22.20;99.90;;;;;;5033321;28;20030;-36
2023/09/05 12:07:51;;;;;;;1.80;1.10;;;22.20;99.90;;;;;;5033594;28;20025;-36
2023/09/05 12:10:17;;;;;;;2.75;1.20;;;22.20;99.90;;;;;;5033074;28;20037;-37
2023/09/05 12:13:01;;;;;;;1.38;1.10;;;22.30;99.90;;;;;;5033304;28;20028;-36
2023/09/05 12:15:34;;;;;;;1.77;1.23;;;22.30;99.90;;;;;;5033132;28;20029;-35
2023/09/05 12:18:05;;;;;;;1.50;1.08;;;22.20;99.90;;;;;;5033252;28;20029;-38
2023/09/05 12:20:32;;;;;;;2.25;1.13;;;22.20;99.90;;;;;;5033343;28;20026;-37
2023/09/05 12:22:58;;;;;;;1.60;1.20;;;22.30;99.90;;;;;;5033072;28;20026;-37
2023/09/05 12:25:28;;;;;;;2.42;1.10;;;22.30;99.90;;;;;;5032901;28;20032;-40
2023/09/05 12:27:55;;;;;;;3.78;1.10;;;22.30;99.90;;;;;;5032927;28;20021;-36
2023/09/05 12:30:32;;;;;;;1.27;0.90;;;22.30;99.90;;;;;;5032906;28;20471;-36
2023/09/05 12:33:03;;;;;;;2.80;0.90;;;22.30;99.90;;;;;;5032838;28;20079;-41
2023/09/05 12:35:31;;;;;;;1.70;1.10;;;22.30;99.90;;;;;;5032826;28;20026;-38
2023/09/05 12:38:00;;;;;;;1.63;1.10;;;22.30;99.90;;;;;;5032755;28;20026;-43
2023/09/05 12:40:26;;;;;;;1.38;0.98;;;22.30;99.90;;;;;;5032501;28;20361;-37
2023/09/05 12:42:52;;;;;;;1.50;1.10;;;22.30;99.90;;;;;;5032573;28;20087;-39
2023/09/05 12:45:19;;;;;;;1.77;0.85;;;22.30;99.90;;;;;;5032481;28;20044;-34
2023/09/05 12:47:49;;;;;;;1.48;1.10;;;22.30;99.90;;;;;;5032636;28;20124;-34